sensor_id;sensor_type;location;lat;lon;timestamp;pressure;altitude;pressure_sealevel;temperature;humidity
77855;BME280;67046;50.088;14.336;2023-02-21T00:00:25;97541.52;;;7.66;67.58
77855;BME280;67046;50.088;14.336;2023-02-21T00:01:26;97537.91;;;7.64;67.18
77855;BME280;67046;50.088;14.336;2023-02-21T00:02:17;97535.41;;;7.65;67.26
77855;BME280;67046;50.088;14.336;2023-02-21T00:03:07;97532.83;;;7.64;67.05
77855;BME280;67046;50.088;14.336;2023-02-21T00:03:58;97533.92;;;7.64;67.39
77855;BME280;67046;50.088;14.336;2023-02-21T00:04:49;97540.53;;;7.63;67.54
77855;BME280;67046;50.088;14.336;2023-02-21T00:05:39;97538.77;;;7.62;67.24
77855;BME280;67046;50.088;14.336;2023-02-21T00:06:29;97536.74;;;7.61;67.14
77855;BME280;67046;50.088;14.336;2023-02-21T00:07:21;97547.59;;;7.62;67.44
77855;BME280;67046;50.088;14.336;2023-02-21T00:08:12;97537.74;;;7.62;67.35
77855;BME280;67046;50.088;14.336;2023-02-21T00:09:03;97538.43;;;7.62;67.41
77855;BME280;67046;50.088;14.336;2023-02-21T00:09:53;97537.59;;;7.62;67.37
77855;BME280;67046;50.088;14.336;2023-02-21T00:10:43;97540.62;;;7.62;67.38
77855;BME280;67046;50.088;14.336;2023-02-21T00:11:34;97538.20;;;7.63;67.44
77855;BME280;67046;50.088;14.336;2023-02-21T00:12:24;97529.89;;;7.63;67.51
77855;BME280;67046;50.088;14.336;2023-02-21T00:13:15;97534.71;;;7.62;67.54
77855;BME280;67046;50.088;14.336;2023-02-21T00:14:06;97537.11;;;7.61;67.70
77855;BME280;67046;50.088;14.336;2023-02-21T00:14:56;97530.45;;;7.60;67.51
77855;BME280;67046;50.088;14.336;2023-02-21T00:15:47;97537.82;;;7.60;67.75
77855;BME280;67046;50.088;14.336;2023-02-21T00:16:38;97536.92;;;7.59;67.66
77855;BME280;67046;50.088;14.336;2023-02-21T00:17:28;97533.70;;;7.58;67.39
77855;BME280;67046;50.088;14.336;2023-02-21T00:18:19;97530.90;;;7.58;67.37
77855;BME280;67046;50.088;14.336;2023-02-21T00:19:09;97533.95;;;7.57;67.59
77855;BME280;67046;50.088;14.336;2023-02-21T00:20:00;97526.80;;;7.56;67.48
77855;BME280;67046;50.088;14.336;2023-02-21T00:20:50;97528.95;;;7.56;67.70
77855;BME280;67046;50.088;14.336;2023-02-21T00:21:40;97538.91;;;7.55;67.71
77855;BME280;67046;50.088;14.336;2023-02-21T00:22:31;97536.48;;;7.53;67.85
77855;BME280;67046;50.088;14.336;2023-02-21T00:23:21;97529.75;;;7.53;67.87
77855;BME280;67046;50.088;14.336;2023-02-21T00:24:16;97528.80;;;7.52;67.72
77855;BME280;67046;50.088;14.336;2023-02-21T00:25:07;97526.90;;;7.52;67.66
77855;BME280;67046;50.088;14.336;2023-02-21T00:25:57;97535.37;;;7.53;68.22
77855;BME280;67046;50.088;14.336;2023-02-21T00:26:47;97531.95;;;7.52;67.98
77855;BME280;67046;50.088;14.336;2023-02-21T00:27:38;97529.91;;;7.53;68.13
77855;BME280;67046;50.088;14.336;2023-02-21T00:28:31;97534.19;;;7.53;68.06
77855;BME280;67046;50.088;14.336;2023-02-21T00:29:22;97534.55;;;7.53;68.17
77855;BME280;67046;50.088;14.336;2023-02-21T00:30:13;97539.21;;;7.54;68.05
77855;BME280;67046;50.088;14.336;2023-02-21T00:31:04;97541.10;;;7.54;68.18
77855;BME280;67046;50.088;14.336;2023-02-21T00:31:55;97536.83;;;7.55;68.19
77855;BME280;67046;50.088;14.336;2023-02-21T00:32:45;97535.88;;;7.55;68.01
77855;BME280;67046;50.088;14.336;2023-02-21T00:33:36;97533.63;;;7.55;68.06
77855;BME280;67046;50.088;14.336;2023-02-21T00:34:27;97535.21;;;7.52;67.95
77855;BME280;67046;50.088;14.336;2023-02-21T00:35:17;97531.33;;;7.53;68.14
77855;BME280;67046;50.088;14.336;2023-02-21T00:36:08;97532.26;;;7.52;68.08
77855;BME280;67046;50.088;14.336;2023-02-21T00:36:58;97528.59;;;7.52;68.15
77855;BME280;67046;50.088;14.336;2023-02-21T00:37:50;97535.40;;;7.51;67.90
77855;BME280;67046;50.088;14.336;2023-02-21T00:38:41;97534.39;;;7.51;68.14
77855;BME280;67046;50.088;14.336;2023-02-21T00:39:31;97535.52;;;7.50;68.31
77855;BME280;67046;50.088;14.336;2023-02-21T00:40:22;97536.44;;;7.50;67.94
77855;BME280;67046;50.088;14.336;2023-02-21T00:41:12;97538.35;;;7.50;67.92
77855;BME280;67046;50.088;14.336;2023-02-21T00:42:03;97532.65;;;7.50;68.34
77855;BME280;67046;50.088;14.336;2023-02-21T00:42:53;97535.67;;;7.50;68.00
77855;BME280;67046;50.088;14.336;2023-02-21T00:43:44;97542.95;;;7.51;68.48
77855;BME280;67046;50.088;14.336;2023-02-21T00:44:34;97544.90;;;7.51;68.19
77855;BME280;67046;50.088;14.336;2023-02-21T00:45:25;97544.46;;;7.50;68.35
77855;BME280;67046;50.088;14.336;2023-02-21T00:46:15;97549.77;;;7.50;68.56
77855;BME280;67046;50.088;14.336;2023-02-21T00:47:06;97545.48;;;7.49;68.13
77855;BME280;67046;50.088;14.336;2023-02-21T00:47:56;97545.80;;;7.50;68.59
77855;BME280;67046;50.088;14.336;2023-02-21T00:48:46;97547.84;;;7.49;68.39
77855;BME280;67046;50.088;14.336;2023-02-21T00:49:37;97548.82;;;7.48;68.44
77855;BME280;67046;50.088;14.336;2023-02-21T00:50:27;97545.83;;;7.47;68.42
77855;BME280;67046;50.088;14.336;2023-02-21T00:51:18;97550.30;;;7.46;68.33
77855;BME280;67046;50.088;14.336;2023-02-21T00:52:08;97550.77;;;7.45;68.63
77855;BME280;67046;50.088;14.336;2023-02-21T00:52:59;97549.05;;;7.44;68.64
77855;BME280;67046;50.088;14.336;2023-02-21T00:53:49;97550.57;;;7.43;68.56
77855;BME280;67046;50.088;14.336;2023-02-21T00:54:39;97548.91;;;7.42;68.42
77855;BME280;67046;50.088;14.336;2023-02-21T00:55:30;97548.84;;;7.42;68.44
77855;BME280;67046;50.088;14.336;2023-02-21T00:56:21;97553.23;;;7.42;68.98
77855;BME280;67046;50.088;14.336;2023-02-21T00:57:11;97551.45;;;7.42;68.46
77855;BME280;67046;50.088;14.336;2023-02-21T00:58:02;97545.11;;;7.42;68.56
77855;BME280;67046;50.088;14.336;2023-02-21T00:58:53;97545.10;;;7.43;68.76
77855;BME280;67046;50.088;14.336;2023-02-21T00:59:43;97545.30;;;7.43;68.60
77855;BME280;67046;50.088;14.336;2023-02-21T01:00:34;97543.27;;;7.44;68.50
77855;BME280;67046;50.088;14.336;2023-02-21T01:01:24;97541.60;;;7.45;68.78
77855;BME280;67046;50.088;14.336;2023-02-21T01:02:15;97541.30;;;7.42;68.95
77855;BME280;67046;50.088;14.336;2023-02-21T01:03:07;97539.69;;;7.42;68.85
77855;BME280;67046;50.088;14.336;2023-02-21T01:03:58;97539.52;;;7.42;68.69
77855;BME280;67046;50.088;14.336;2023-02-21T01:04:49;97540.01;;;7.42;68.59
77855;BME280;67046;50.088;14.336;2023-02-21T01:05:39;97536.07;;;7.40;68.77
77855;BME280;67046;50.088;14.336;2023-02-21T01:06:30;97538.22;;;7.40;68.75
77855;BME280;67046;50.088;14.336;2023-02-21T01:07:21;97540.89;;;7.40;68.76
77855;BME280;67046;50.088;14.336;2023-02-21T01:08:12;97542.19;;;7.39;69.09
77855;BME280;67046;50.088;14.336;2023-02-21T01:09:03;97545.48;;;7.37;68.61
77855;BME280;67046;50.088;14.336;2023-02-21T01:09:54;97548.07;;;7.37;68.80
77855;BME280;67046;50.088;14.336;2023-02-21T01:10:44;97541.97;;;7.36;68.81
77855;BME280;67046;50.088;14.336;2023-02-21T01:11:35;97544.89;;;7.35;68.91
77855;BME280;67046;50.088;14.336;2023-02-21T01:12:26;97545.66;;;7.35;69.02
77855;BME280;67046;50.088;14.336;2023-02-21T01:13:16;97541.00;;;7.31;68.99
77855;BME280;67046;50.088;14.336;2023-02-21T01:14:07;97541.78;;;7.30;69.16
77855;BME280;67046;50.088;14.336;2023-02-21T01:14:58;97542.83;;;7.28;68.88
77855;BME280;67046;50.088;14.336;2023-02-21T01:15:49;97547.24;;;7.26;69.23
77855;BME280;67046;50.088;14.336;2023-02-21T01:16:40;97549.63;;;7.25;69.18
77855;BME280;67046;50.088;14.336;2023-02-21T01:17:31;97550.96;;;7.25;69.41
77855;BME280;67046;50.088;14.336;2023-02-21T01:18:21;97551.39;;;7.24;69.27
77855;BME280;67046;50.088;14.336;2023-02-21T01:19:12;97553.16;;;7.24;69.34
77855;BME280;67046;50.088;14.336;2023-02-21T01:20:03;97553.89;;;7.24;69.35
77855;BME280;67046;50.088;14.336;2023-02-21T01:20:54;97552.24;;;7.23;69.16
77855;BME280;67046;50.088;14.336;2023-02-21T01:21:44;97552.24;;;7.23;69.42
77855;BME280;67046;50.088;14.336;2023-02-21T01:22:35;97547.71;;;7.23;69.39
77855;BME280;67046;50.088;14.336;2023-02-21T01:23:25;97545.69;;;7.22;69.48
77855;BME280;67046;50.088;14.336;2023-02-21T01:24:16;97545.16;;;7.22;69.35
77855;BME280;67046;50.088;14.336;2023-02-21T01:25:06;97543.24;;;7.21;69.40
77855;BME280;67046;50.088;14.336;2023-02-21T01:25:57;97541.19;;;7.21;69.34
77855;BME280;67046;50.088;14.336;2023-02-21T01:26:48;97535.88;;;7.18;69.52
77855;BME280;67046;50.088;14.336;2023-02-21T01:27:38;97537.85;;;7.17;69.76
77855;BME280;67046;50.088;14.336;2023-02-21T01:28:29;97537.52;;;7.16;69.56
77855;BME280;67046;50.088;14.336;2023-02-21T01:29:20;97535.05;;;7.15;69.44
77855;BME280;67046;50.088;14.336;2023-02-21T01:30:11;97534.17;;;7.14;69.97
77855;BME280;67046;50.088;14.336;2023-02-21T01:31:01;97531.64;;;7.12;69.99
77855;BME280;67046;50.088;14.336;2023-02-21T01:31:51;97532.71;;;7.10;69.83
77855;BME280;67046;50.088;14.336;2023-02-21T01:32:42;97532.63;;;7.09;69.98
77855;BME280;67046;50.088;14.336;2023-02-21T01:33:41;97530.41;;;7.09;70.15
77855;BME280;67046;50.088;14.336;2023-02-21T01:34:31;97528.91;;;7.09;69.76
77855;BME280;67046;50.088;14.336;2023-02-21T01:35:22;97532.48;;;7.08;69.73
77855;BME280;67046;50.088;14.336;2023-02-21T01:36:12;97530.78;;;7.08;70.19
77855;BME280;67046;50.088;14.336;2023-02-21T01:37:03;97530.39;;;7.07;70.45
77855;BME280;67046;50.088;14.336;2023-02-21T01:37:55;97536.17;;;7.05;70.20
77855;BME280;67046;50.088;14.336;2023-02-21T01:38:46;97531.52;;;7.06;70.46
77855;BME280;67046;50.088;14.336;2023-02-21T01:39:37;97530.91;;;7.06;70.25
77855;BME280;67046;50.088;14.336;2023-02-21T01:40:28;97537.56;;;7.04;70.12
77855;BME280;67046;50.088;14.336;2023-02-21T01:41:19;97539.27;;;7.03;70.28
77855;BME280;67046;50.088;14.336;2023-02-21T01:42:10;97536.70;;;7.02;70.79
77855;BME280;67046;50.088;14.336;2023-02-21T01:43:00;97528.63;;;6.99;70.46
77855;BME280;67046;50.088;14.336;2023-02-21T01:43:59;97537.33;;;6.97;70.49
77855;BME280;67046;50.088;14.336;2023-02-21T01:46:12;97528.27;;;6.93;70.40
77855;BME280;67046;50.088;14.336;2023-02-21T01:47:03;97530.83;;;6.92;70.91
77855;BME280;67046;50.088;14.336;2023-02-21T01:47:54;97535.88;;;6.92;71.11
77855;BME280;67046;50.088;14.336;2023-02-21T01:48:46;97530.30;;;6.92;71.02
77855;BME280;67046;50.088;14.336;2023-02-21T01:49:38;97530.27;;;6.92;71.06
77855;BME280;67046;50.088;14.336;2023-02-21T01:50:31;97532.15;;;6.92;71.31
77855;BME280;67046;50.088;14.336;2023-02-21T01:51:26;97525.52;;;6.94;71.08
77855;BME280;67046;50.088;14.336;2023-02-21T01:52:17;97528.09;;;6.94;71.37
77855;BME280;67046;50.088;14.336;2023-02-21T01:53:11;97524.54;;;6.94;71.27
77855;BME280;67046;50.088;14.336;2023-02-21T01:54:02;97525.65;;;6.91;71.58
77855;BME280;67046;50.088;14.336;2023-02-21T01:54:54;97522.14;;;6.92;71.21
77855;BME280;67046;50.088;14.336;2023-02-21T01:55:45;97521.81;;;6.91;71.25
77855;BME280;67046;50.088;14.336;2023-02-21T01:56:35;97521.70;;;6.91;71.17
77855;BME280;67046;50.088;14.336;2023-02-21T01:57:26;97517.95;;;6.90;71.15
77855;BME280;67046;50.088;14.336;2023-02-21T01:58:19;97514.19;;;6.91;71.26
77855;BME280;67046;50.088;14.336;2023-02-21T01:59:10;97520.05;;;6.90;71.07
77855;BME280;67046;50.088;14.336;2023-02-21T02:00:04;97521.36;;;6.90;71.41
77855;BME280;67046;50.088;14.336;2023-02-21T02:00:55;97517.76;;;6.89;71.45
77855;BME280;67046;50.088;14.336;2023-02-21T02:01:51;97517.35;;;6.88;71.44
77855;BME280;67046;50.088;14.336;2023-02-21T02:02:46;97519.50;;;6.88;71.51
77855;BME280;67046;50.088;14.336;2023-02-21T02:03:40;97513.82;;;6.85;71.32
77855;BME280;67046;50.088;14.336;2023-02-21T02:04:32;97511.55;;;6.85;71.44
77855;BME280;67046;50.088;14.336;2023-02-21T02:05:23;97515.55;;;6.85;71.62
77855;BME280;67046;50.088;14.336;2023-02-21T02:06:16;97513.94;;;6.85;71.57
77855;BME280;67046;50.088;14.336;2023-02-21T02:07:09;97516.69;;;6.86;71.57
77855;BME280;67046;50.088;14.336;2023-02-21T02:08:00;97513.13;;;6.86;71.70
77855;BME280;67046;50.088;14.336;2023-02-21T02:08:50;97509.48;;;6.86;71.83
77855;BME280;67046;50.088;14.336;2023-02-21T02:09:42;97503.67;;;6.86;71.76
77855;BME280;67046;50.088;14.336;2023-02-21T02:10:33;97498.13;;;6.85;71.85
77855;BME280;67046;50.088;14.336;2023-02-21T02:14:36;97503.95;;;6.80;71.99
77855;BME280;67046;50.088;14.336;2023-02-21T02:15:27;97500.94;;;6.78;72.13
77855;BME280;67046;50.088;14.336;2023-02-21T02:17:07;97500.75;;;6.77;72.35
77855;BME280;67046;50.088;14.336;2023-02-21T02:18:41;97494.02;;;6.75;72.44
77855;BME280;67046;50.088;14.336;2023-02-21T02:22:07;97485.45;;;6.76;72.90
77855;BME280;67046;50.088;14.336;2023-02-21T02:23:59;97474.86;;;6.79;72.65
77855;BME280;67046;50.088;14.336;2023-02-21T02:25:02;97478.22;;;6.79;72.44
77855;BME280;67046;50.088;14.336;2023-02-21T02:28:07;97476.89;;;6.81;72.87
77855;BME280;67046;50.088;14.336;2023-02-21T02:29:00;97485.34;;;6.81;72.98
77855;BME280;67046;50.088;14.336;2023-02-21T02:31:04;97483.16;;;6.82;72.68
77855;BME280;67046;50.088;14.336;2023-02-21T02:34:23;97489.55;;;6.88;72.75
77855;BME280;67046;50.088;14.336;2023-02-21T02:35:34;97489.64;;;6.91;72.88
77855;BME280;67046;50.088;14.336;2023-02-21T02:36:25;97491.75;;;6.92;72.64
77855;BME280;67046;50.088;14.336;2023-02-21T02:37:09;97486.55;;;6.93;72.58
77855;BME280;67046;50.088;14.336;2023-02-21T02:39:25;97489.73;;;6.94;72.50
77855;BME280;67046;50.088;14.336;2023-02-21T02:41:06;97490.59;;;6.94;72.47
77855;BME280;67046;50.088;14.336;2023-02-21T02:41:52;97487.11;;;6.94;72.76
77855;BME280;67046;50.088;14.336;2023-02-21T02:44:14;97488.98;;;6.97;72.74
77855;BME280;67046;50.088;14.336;2023-02-21T02:44:56;97492.70;;;6.98;72.82
77855;BME280;67046;50.088;14.336;2023-02-21T02:45:43;97489.66;;;6.98;72.87
77855;BME280;67046;50.088;14.336;2023-02-21T02:46:26;97493.29;;;7.00;72.49
77855;BME280;67046;50.088;14.336;2023-02-21T02:47:00;97491.61;;;7.02;72.90
77855;BME280;67046;50.088;14.336;2023-02-21T02:47:36;97495.04;;;7.03;72.58
77855;BME280;67046;50.088;14.336;2023-02-21T02:48:21;97493.45;;;7.04;73.10
77855;BME280;67046;50.088;14.336;2023-02-21T02:49:28;97492.10;;;7.05;72.60
77855;BME280;67046;50.088;14.336;2023-02-21T02:50:02;97487.90;;;7.05;72.69
77855;BME280;67046;50.088;14.336;2023-02-21T02:50:36;97484.53;;;7.07;72.80
77855;BME280;67046;50.088;14.336;2023-02-21T02:51:11;97485.61;;;7.07;72.67
77855;BME280;67046;50.088;14.336;2023-02-21T02:51:45;97482.63;;;7.09;72.70
77855;BME280;67046;50.088;14.336;2023-02-21T02:52:17;97485.08;;;7.10;72.60
77855;BME280;67046;50.088;14.336;2023-02-21T02:52:51;97485.63;;;7.11;72.33
77855;BME280;67046;50.088;14.336;2023-02-21T02:53:28;97482.84;;;7.12;72.58
77855;BME280;67046;50.088;14.336;2023-02-21T02:54:01;97487.11;;;7.13;72.54
77855;BME280;67046;50.088;14.336;2023-02-21T02:54:33;97479.73;;;7.14;72.73
77855;BME280;67046;50.088;14.336;2023-02-21T02:56:06;97489.60;;;7.15;72.74
77855;BME280;67046;50.088;14.336;2023-02-21T02:56:14;97473.33;;;7.16;72.76
77855;BME280;67046;50.088;14.336;2023-02-21T02:56:48;97479.50;;;7.17;72.70
77855;BME280;67046;50.088;14.336;2023-02-21T02:57:20;97481.33;;;7.19;72.84
77855;BME280;67046;50.088;14.336;2023-02-21T02:57:52;97479.95;;;7.21;72.33
77855;BME280;67046;50.088;14.336;2023-02-21T02:58:28;97477.55;;;7.23;72.28
77855;BME280;67046;50.088;14.336;2023-02-21T02:59:07;97480.07;;;7.25;72.60
77855;BME280;67046;50.088;14.336;2023-02-21T02:59:44;97478.59;;;7.28;72.51
77855;BME280;67046;50.088;14.336;2023-02-21T03:00:17;97478.41;;;7.30;72.22
77855;BME280;67046;50.088;14.336;2023-02-21T03:02:37;97471.65;;;7.35;72.27
77855;BME280;67046;50.088;14.336;2023-02-21T03:03:44;97473.16;;;7.36;72.41
77855;BME280;67046;50.088;14.336;2023-02-21T03:10:17;97465.14;;;7.45;72.23
77855;BME280;67046;50.088;14.336;2023-02-21T03:11:01;97465.73;;;7.46;72.29
77855;BME280;67046;50.088;14.336;2023-02-21T03:11:45;97461.27;;;7.47;72.37
77855;BME280;67046;50.088;14.336;2023-02-21T03:13:03;97465.60;;;7.50;72.13
77855;BME280;67046;50.088;14.336;2023-02-21T03:13:33;97464.63;;;7.52;72.00
77855;BME280;67046;50.088;14.336;2023-02-21T03:14:13;97464.84;;;7.53;72.05
77855;BME280;67046;50.088;14.336;2023-02-21T03:14:53;97465.37;;;7.54;71.97
77855;BME280;67046;50.088;14.336;2023-02-21T03:16:13;97470.85;;;7.58;72.13
77855;BME280;67046;50.088;14.336;2023-02-21T03:16:51;97469.27;;;7.60;71.65
77855;BME280;67046;50.088;14.336;2023-02-21T03:17:25;97465.27;;;7.62;71.99
77855;BME280;67046;50.088;14.336;2023-02-21T03:18:08;97467.95;;;7.64;71.59
77855;BME280;67046;50.088;14.336;2023-02-21T03:18:58;97469.32;;;7.66;71.91
77855;BME280;67046;50.088;14.336;2023-02-21T03:19:36;97468.30;;;7.67;71.63
77855;BME280;67046;50.088;14.336;2023-02-21T03:20:12;97465.44;;;7.68;71.81
77855;BME280;67046;50.088;14.336;2023-02-21T03:20:46;97467.40;;;7.69;71.60
77855;BME280;67046;50.088;14.336;2023-02-21T03:21:25;97466.02;;;7.70;71.70
77855;BME280;67046;50.088;14.336;2023-02-21T03:22:03;97463.40;;;7.70;71.66
77855;BME280;67046;50.088;14.336;2023-02-21T03:22:37;97470.29;;;7.72;71.75
77855;BME280;67046;50.088;14.336;2023-02-21T03:23:11;97467.85;;;7.73;71.75
77855;BME280;67046;50.088;14.336;2023-02-21T03:23:49;97471.61;;;7.74;71.60
77855;BME280;67046;50.088;14.336;2023-02-21T03:24:23;97468.06;;;7.75;71.50
77855;BME280;67046;50.088;14.336;2023-02-21T03:24:59;97463.92;;;7.76;71.52
77855;BME280;67046;50.088;14.336;2023-02-21T03:25:33;97462.43;;;7.77;71.85
77855;BME280;67046;50.088;14.336;2023-02-21T03:26:08;97467.02;;;7.78;71.37
77855;BME280;67046;50.088;14.336;2023-02-21T03:26:44;97462.60;;;7.79;71.58
77855;BME280;67046;50.088;14.336;2023-02-21T03:27:20;97466.08;;;7.79;71.54
77855;BME280;67046;50.088;14.336;2023-02-21T03:27:54;97464.42;;;7.80;71.49
77855;BME280;67046;50.088;14.336;2023-02-21T03:28:27;97461.85;;;7.81;71.50
77855;BME280;67046;50.088;14.336;2023-02-21T03:29:01;97462.52;;;7.82;71.41
77855;BME280;67046;50.088;14.336;2023-02-21T03:29:35;97462.66;;;7.84;71.44
77855;BME280;67046;50.088;14.336;2023-02-21T03:30:09;97462.05;;;7.84;71.37
77855;BME280;67046;50.088;14.336;2023-02-21T03:30:43;97463.14;;;7.85;71.23
77855;BME280;67046;50.088;14.336;2023-02-21T03:31:18;97464.28;;;7.87;71.54
77855;BME280;67046;50.088;14.336;2023-02-21T03:31:59;97461.73;;;7.88;71.21
77855;BME280;67046;50.088;14.336;2023-02-21T03:32:48;97459.60;;;7.89;71.27
77855;BME280;67046;50.088;14.336;2023-02-21T03:33:22;97460.33;;;7.89;71.30
77855;BME280;67046;50.088;14.336;2023-02-21T03:33:54;97455.70;;;7.89;71.46
77855;BME280;67046;50.088;14.336;2023-02-21T03:34:26;97462.14;;;7.89;71.40
77855;BME280;67046;50.088;14.336;2023-02-21T03:34:59;97460.12;;;7.89;71.15
77855;BME280;67046;50.088;14.336;2023-02-21T03:35:30;97460.76;;;7.89;71.52
77855;BME280;67046;50.088;14.336;2023-02-21T03:36:05;97457.64;;;7.90;71.48
77855;BME280;67046;50.088;14.336;2023-02-21T03:36:38;97461.79;;;7.92;71.46
77855;BME280;67046;50.088;14.336;2023-02-21T03:37:33;97459.99;;;7.93;71.16
77855;BME280;67046;50.088;14.336;2023-02-21T03:38:06;97460.42;;;7.94;71.28
77855;BME280;67046;50.088;14.336;2023-02-21T03:38:38;97465.43;;;7.95;71.54
77855;BME280;67046;50.088;14.336;2023-02-21T03:39:10;97465.91;;;7.96;71.26
77855;BME280;67046;50.088;14.336;2023-02-21T03:39:42;97457.83;;;7.97;70.96
77855;BME280;67046;50.088;14.336;2023-02-21T03:40:27;97468.73;;;7.99;71.14
77855;BME280;67046;50.088;14.336;2023-02-21T03:41:00;97465.30;;;8.00;71.05
77855;BME280;67046;50.088;14.336;2023-02-21T03:41:32;97466.69;;;8.01;71.11
77855;BME280;67046;50.088;14.336;2023-02-21T03:42:04;97473.14;;;8.03;71.07
77855;BME280;67046;50.088;14.336;2023-02-21T03:42:36;97463.35;;;8.02;71.29
77855;BME280;67046;50.088;14.336;2023-02-21T03:43:08;97463.30;;;8.03;71.03
77855;BME280;67046;50.088;14.336;2023-02-21T03:43:40;97466.52;;;8.05;70.79
77855;BME280;67046;50.088;14.336;2023-02-21T03:44:12;97471.11;;;8.06;71.14
77855;BME280;67046;50.088;14.336;2023-02-21T03:44:44;97466.92;;;8.07;70.76
77855;BME280;67046;50.088;14.336;2023-02-21T03:45:16;97466.17;;;8.08;70.85
77855;BME280;67046;50.088;14.336;2023-02-21T03:45:48;97468.64;;;8.09;71.10
77855;BME280;67046;50.088;14.336;2023-02-21T03:46:20;97465.11;;;8.10;70.83
77855;BME280;67046;50.088;14.336;2023-02-21T03:46:53;97471.34;;;8.10;70.73
77855;BME280;67046;50.088;14.336;2023-02-21T03:47:25;97466.05;;;8.11;70.73
77855;BME280;67046;50.088;14.336;2023-02-21T03:47:57;97469.36;;;8.13;70.68
77855;BME280;67046;50.088;14.336;2023-02-21T03:48:29;97462.20;;;8.13;70.60
77855;BME280;67046;50.088;14.336;2023-02-21T03:49:01;97469.11;;;8.13;70.60
77855;BME280;67046;50.088;14.336;2023-02-21T03:49:33;97467.05;;;8.13;70.78
77855;BME280;67046;50.088;14.336;2023-02-21T03:50:05;97463.50;;;8.14;70.62
77855;BME280;67046;50.088;14.336;2023-02-21T03:50:38;97462.45;;;8.16;70.67
77855;BME280;67046;50.088;14.336;2023-02-21T03:51:10;97465.52;;;8.16;70.73
77855;BME280;67046;50.088;14.336;2023-02-21T03:51:42;97461.57;;;8.17;70.76
77855;BME280;67046;50.088;14.336;2023-02-21T03:52:14;97470.60;;;8.18;70.65
77855;BME280;67046;50.088;14.336;2023-02-21T03:52:46;97469.38;;;8.19;70.50
77855;BME280;67046;50.088;14.336;2023-02-21T03:53:18;97465.02;;;8.20;70.36
77855;BME280;67046;50.088;14.336;2023-02-21T03:53:49;97470.10;;;8.22;70.40
77855;BME280;67046;50.088;14.336;2023-02-21T03:54:21;97467.14;;;8.22;70.36
77855;BME280;67046;50.088;14.336;2023-02-21T03:54:53;97465.25;;;8.23;70.40
77855;BME280;67046;50.088;14.336;2023-02-21T03:55:25;97463.14;;;8.25;70.49
77855;BME280;67046;50.088;14.336;2023-02-21T03:55:57;97458.30;;;8.25;70.44
77855;BME280;67046;50.088;14.336;2023-02-21T03:56:29;97462.98;;;8.25;70.48
77855;BME280;67046;50.088;14.336;2023-02-21T03:57:01;97462.84;;;8.26;70.32
77855;BME280;67046;50.088;14.336;2023-02-21T03:57:33;97455.73;;;8.26;70.27
77855;BME280;67046;50.088;14.336;2023-02-21T03:58:05;97465.70;;;8.26;70.16
77855;BME280;67046;50.088;14.336;2023-02-21T03:58:37;97458.08;;;8.27;70.02
77855;BME280;67046;50.088;14.336;2023-02-21T03:59:09;97459.17;;;8.27;70.14
77855;BME280;67046;50.088;14.336;2023-02-21T03:59:41;97459.55;;;8.27;70.19
77855;BME280;67046;50.088;14.336;2023-02-21T04:00:14;97462.10;;;8.27;70.09
77855;BME280;67046;50.088;14.336;2023-02-21T04:00:46;97463.97;;;8.28;70.22
77855;BME280;67046;50.088;14.336;2023-02-21T04:01:18;97459.60;;;8.27;70.30
77855;BME280;67046;50.088;14.336;2023-02-21T04:01:50;97459.35;;;8.28;70.19
77855;BME280;67046;50.088;14.336;2023-02-21T04:02:22;97460.73;;;8.28;69.91
77855;BME280;67046;50.088;14.336;2023-02-21T04:02:53;97455.75;;;8.30;69.94
77855;BME280;67046;50.088;14.336;2023-02-21T04:03:26;97453.59;;;8.31;70.15
77855;BME280;67046;50.088;14.336;2023-02-21T04:03:57;97453.59;;;8.31;70.09
77855;BME280;67046;50.088;14.336;2023-02-21T04:04:29;97450.33;;;8.32;69.98
77855;BME280;67046;50.088;14.336;2023-02-21T04:05:01;97451.83;;;8.32;70.05
77855;BME280;67046;50.088;14.336;2023-02-21T04:05:33;97446.79;;;8.33;70.07
77855;BME280;67046;50.088;14.336;2023-02-21T04:06:05;97451.75;;;8.34;69.75
77855;BME280;67046;50.088;14.336;2023-02-21T04:06:37;97447.78;;;8.35;69.77
77855;BME280;67046;50.088;14.336;2023-02-21T04:07:10;97451.46;;;8.35;69.88
77855;BME280;67046;50.088;14.336;2023-02-21T04:07:42;97445.02;;;8.36;69.96
77855;BME280;67046;50.088;14.336;2023-02-21T04:08:13;97455.35;;;8.36;69.67
77855;BME280;67046;50.088;14.336;2023-02-21T04:08:45;97445.77;;;8.37;69.70
77855;BME280;67046;50.088;14.336;2023-02-21T04:09:17;97446.99;;;8.36;69.34
77855;BME280;67046;50.088;14.336;2023-02-21T04:09:49;97443.21;;;8.37;69.59
77855;BME280;67046;50.088;14.336;2023-02-21T04:10:21;97444.34;;;8.37;69.59
77855;BME280;67046;50.088;14.336;2023-02-21T04:10:53;97448.93;;;8.36;69.60
77855;BME280;67046;50.088;14.336;2023-02-21T04:11:25;97445.27;;;8.37;69.71
77855;BME280;67046;50.088;14.336;2023-02-21T04:11:57;97442.57;;;8.37;69.73
77855;BME280;67046;50.088;14.336;2023-02-21T04:12:29;97432.61;;;8.36;69.58
77855;BME280;67046;50.088;14.336;2023-02-21T04:13:01;97440.59;;;8.36;69.38
77855;BME280;67046;50.088;14.336;2023-02-21T04:13:33;97445.15;;;8.37;69.57
77855;BME280;67046;50.088;14.336;2023-02-21T04:14:04;97443.34;;;8.36;69.80
77855;BME280;67046;50.088;14.336;2023-02-21T04:14:37;97439.50;;;8.36;69.52
77855;BME280;67046;50.088;14.336;2023-02-21T04:15:10;97440.12;;;8.36;69.68
77855;BME280;67046;50.088;14.336;2023-02-21T04:15:42;97442.63;;;8.35;69.72
77855;BME280;67046;50.088;14.336;2023-02-21T04:16:14;97435.88;;;8.35;69.56
77855;BME280;67046;50.088;14.336;2023-02-21T04:16:46;97446.97;;;8.34;69.51
77855;BME280;67046;50.088;14.336;2023-02-21T04:17:18;97442.39;;;8.35;69.29
77855;BME280;67046;50.088;14.336;2023-02-21T04:17:50;97443.17;;;8.34;69.53
77855;BME280;67046;50.088;14.336;2023-02-21T04:18:22;97436.77;;;8.35;69.67
77855;BME280;67046;50.088;14.336;2023-02-21T04:18:53;97441.54;;;8.34;69.68
77855;BME280;67046;50.088;14.336;2023-02-21T04:19:25;97436.64;;;8.34;69.42